Time;durP1;ratioP1;P1;durP2;ratioP2;P2;SDS_P1;SDS_P2;PMS_P1;PMS_P2;Temp;Humidity;BMP_temperature;BMP_pressure;BME280_temperature;BME280_humidity;BME280_pressure;Samples;Min_cycle;Max_cycle;Signal;HPM_P1;HPM_P2
2022/01/01 00:00:48;;;;;;;46.88;24.17;;;;;;;13.79;79.26;101475.38;5051419;28;20582;-67
2022/01/01 00:03:14;;;;;;;38.10;23.27;;;;;;;13.62;79.81;101479.78;5051518;28;20107;-67
2022/01/01 00:05:42;;;;;;;35.95;21.92;;;;;;;13.68;80.00;101481.22;5051410;28;20068;-67
2022/01/01 00:08:10;;;;;;;30.23;19.05;;;;;;;13.58;80.39;101490.56;5053855;28;20064;-67
2022/01/01 00:10:36;;;;;;;35.58;20.27;;;;;;;13.75;79.86;101492.28;5051081;28;20056;-67
2022/01/01 00:13:03;;;;;;;31.33;18.92;;;;;;;13.89;79.07;101497.72;5051429;28;20432;-67
2022/01/01 00:15:29;;;;;;;30.73;16.40;;;;;;;13.74;80.22;101495.88;5050446;28;20053;-67
2022/01/01 00:17:57;;;;;;;29.52;16.00;;;;;;;13.70;79.83;101492.56;5051662;28;20048;-68
2022/01/01 00:20:24;;;;;;;27.95;15.05;;;;;;;13.54;80.18;101503.06;5051787;28;20095;-67
2022/01/01 00:22:52;;;;;;;26.63;13.90;;;;;;;13.34;81.02;101503.19;5051874;28;20579;-67
2022/01/01 00:25:18;;;;;;;25.75;14.38;;;;;;;13.47;81.46;101512.19;5052015;28;20041;-68
2022/01/01 00:27:44;;;;;;;25.13;14.38;;;;;;;13.37;81.72;101510.97;5051352;28;20049;-67
2022/01/01 00:30:12;;;;;;;28.55;15.13;;;;;;;13.38;82.03;101502.13;5051303;28;20118;-67
2022/01/01 00:32:39;;;;;;;24.00;15.02;;;;;;;13.57;81.44;101512.56;5050670;28;20059;-67
2022/01/01 00:35:06;;;;;;;22.25;15.07;;;;;;;13.69;81.14;101516.34;5051360;28;20049;-67
2022/01/01 00:37:33;;;;;;;22.23;15.00;;;;;;;13.81;80.25;101521.00;5051596;28;20072;-68
2022/01/01 00:40:00;;;;;;;26.92;16.65;;;;;;;13.79;80.22;101517.56;5049380;28;20076;-67
2022/01/01 00:42:27;;;;;;;28.95;14.48;;;;;;;13.54;81.31;101526.75;5046462;28;20053;-67
2022/01/01 00:44:53;;;;;;;23.73;12.98;;;;;;;13.73;79.93;101520.53;5051186;28;20442;-67
2022/01/01 00:47:19;;;;;;;21.60;12.25;;;;;;;13.87;80.05;101531.19;5050950;28;20075;-68
2022/01/01 00:49:46;;;;;;;18.13;11.95;;;;;;;13.69;80.36;101517.22;5051319;28;20559;-68
2022/01/01 00:52:12;;;;;;;25.75;12.68;;;;;;;13.46;81.84;101518.41;5050997;28;20122;-68
2022/01/01 00:54:39;;;;;;;22.73;12.25;;;;;;;13.33;82.34;101519.09;5050380;28;20041;-68
2022/01/01 00:57:06;;;;;;;30.95;13.40;;;;;;;13.71;80.80;101531.16;5050666;28;20102;-72
2022/01/01 00:59:33;;;;;;;26.05;12.65;;;;;;;13.82;80.22;101538.53;5050089;28;20115;-68
2022/01/01 01:01:59;;;;;;;24.55;13.23;;;;;;;13.62;80.97;101547.44;5048928;28;20806;-68
2022/01/01 01:04:26;;;;;;;28.95;13.55;;;;;;;13.86;80.01;101553.22;5050482;28;20048;-67
2022/01/01 01:06:53;;;;;;;24.80;13.93;;;;;;;13.70;80.64;101555.81;5050473;28;20102;-68
2022/01/01 01:09:20;;;;;;;27.70;13.50;;;;;;;13.84;80.13;101563.00;5055288;28;20122;-67
2022/01/01 01:11:48;;;;;;;24.70;13.90;;;;;;;13.49;81.62;101557.75;5050478;28;20041;-67
2022/01/01 01:14:21;;;;;;;21.52;12.70;;;;;;;13.83;80.13;101558.66;5050380;28;20079;-67
2022/01/01 01:16:48;;;;;;;22.95;14.25;;;;;;;13.78;80.37;101558.06;5050427;28;20037;-67
2022/01/01 01:19:15;;;;;;;21.42;12.60;;;;;;;13.59;80.56;101569.56;5050387;28;20041;-67
2022/01/01 01:21:41;;;;;;;21.35;11.75;;;;;;;13.63;80.45;101564.97;5050685;28;20049;-67
2022/01/01 01:24:08;;;;;;;23.88;12.18;;;;;;;14.05;78.64;101569.78;5049968;28;20103;-67
2022/01/01 01:26:34;;;;;;;24.38;11.63;;;;;;;13.73;79.58;101579.38;5050511;28;20049;-67
2022/01/01 01:29:03;;;;;;;21.50;11.25;;;;;;;13.99;78.72;101583.28;5050339;28;20040;-67
2022/01/01 01:31:31;;;;;;;23.33;11.45;;;;;;;13.87;78.77;101590.06;5050276;28;20131;-67
2022/01/01 01:33:57;;;;;;;17.70;10.65;;;;;;;13.63;79.13;101586.88;5050135;28;20049;-67
2022/01/01 01:36:24;;;;;;;21.05;10.75;;;;;;;13.79;78.69;101594.00;5050159;28;20072;-67
2022/01/01 01:38:50;;;;;;;18.80;10.85;;;;;;;13.82;78.31;101596.50;5053741;28;20045;-67
2022/01/01 01:41:17;;;;;;;20.63;11.45;;;;;;;13.83;78.31;101587.66;5045511;28;20061;-66
2022/01/01 01:43:45;;;;;;;20.05;12.15;;;;;;;13.93;77.37;101589.72;5048399;28;20122;-67
2022/01/01 01:46:13;;;;;;;24.55;11.20;;;;;;;13.67;78.58;101582.34;5050137;28;20049;-67
2022/01/01 01:48:43;;;;;;;18.95;10.25;;;;;;;14.04;77.25;101578.66;5049334;28;20045;-66
2022/01/01 01:51:11;;;;;;;25.93;10.50;;;;;;;13.71;78.03;101583.84;5048659;28;20049;-67
2022/01/01 01:53:39;;;;;;;19.67;10.43;;;;;;;13.58;78.58;101582.78;5049337;28;20122;-67
2022/01/01 01:56:05;;;;;;;16.83;10.63;;;;;;;13.74;78.03;101591.63;5049497;28;20069;-67
2022/01/01 01:58:32;;;;;;;18.98;10.63;;;;;;;13.47;79.20;101596.50;5049124;28;20072;-67
2022/01/01 02:03:43;;;;;;;22.10;11.55;;;;;;;13.92;77.04;101597.72;5040188;28;20057;-67
2022/01/01 02:06:09;;;;;;;19.70;10.95;;;;;;;13.82;77.24;101588.59;5049677;28;20045;-67
2022/01/01 02:08:36;;;;;;;21.92;11.13;;;;;;;13.87;77.37;101591.84;5053939;28;20090;-67
2022/01/01 02:11:04;;;;;;;25.90;11.20;;;;;;;13.74;77.67;101586.38;5048904;28;20463;-67
2022/01/01 02:13:34;;;;;;;22.10;11.02;;;;;;;14.19;76.15;101598.91;5049542;28;20048;-67
2022/01/01 02:16:28;;;;;;;21.15;10.02;;;;;;;14.04;76.38;101587.38;5049387;28;20558;-67
2022/01/01 02:18:56;;;;;;;20.75;10.90;;;;;;;14.13;75.68;101591.31;5048973;28;20404;-67
2022/01/01 02:21:24;;;;;;;22.80;11.10;;;;;;;13.97;76.63;101599.19;5049128;28;20502;-67
2022/01/01 02:23:57;;;;;;;22.67;10.40;;;;;;;13.94;76.67;101598.50;5049911;28;20047;-67
2022/01/01 02:26:29;;;;;;;23.77;11.20;;;;;;;13.76;77.25;101595.03;5048965;28;20095;-67
2022/01/01 02:28:55;;;;;;;18.30;10.70;;;;;;;13.88;76.58;101589.13;5048858;28;20110;-67
2022/01/01 02:31:22;;;;;;;21.88;11.93;;;;;;;14.10;76.04;101586.22;5049018;28;20110;-67
2022/01/01 02:33:48;;;;;;;18.17;10.20;;;;;;;14.05;75.78;101581.19;5049062;28;20487;-67
2022/01/01 02:36:15;;;;;;;21.55;10.55;;;;;;;13.93;76.23;101596.81;5048981;28;20037;-67
2022/01/01 02:38:43;;;;;;;29.88;11.10;;;;;;;14.09;75.69;101605.59;5053411;28;20049;-67
2022/01/01 02:41:09;;;;;;;21.83;10.80;;;;;;;14.20;75.48;101608.53;5048488;28;20080;-67
2022/01/01 02:43:44;;;;;;;20.65;11.10;;;;;;;14.20;74.93;101603.25;5048890;28;20072;-67
2022/01/01 02:46:10;;;;;;;22.58;12.38;;;;;;;14.21;75.17;101602.34;5049069;28;20049;-67
2022/01/01 02:48:37;;;;;;;23.38;10.77;;;;;;;14.01;75.40;101597.25;5048315;28;20076;-67
2022/01/01 02:51:04;;;;;;;30.55;10.80;;;;;;;13.94;75.74;101606.41;5048887;28;20079;-66
2022/01/01 02:53:31;;;;;;;20.83;10.43;;;;;;;14.13;74.88;101609.78;5048329;28;20056;-66
2022/01/01 02:55:58;;;;;;;20.45;11.70;;;;;;;14.03;75.60;101611.22;5047024;28;20044;-65
2022/01/01 02:58:25;;;;;;;23.00;11.45;;;;;;;13.78;76.73;101616.91;5048623;28;20123;-66
2022/01/01 03:00:51;;;;;;;25.83;10.68;;;;;;;13.99;75.94;101615.78;5048799;28;20114;-66
2022/01/01 03:03:18;;;;;;;22.75;11.27;;;;;;;13.92;76.16;101624.97;5049050;28;20037;-66
2022/01/01 03:05:44;;;;;;;21.38;11.75;;;;;;;13.88;76.19;101628.69;5048412;28;20114;-66
2022/01/01 03:08:10;;;;;;;20.73;10.90;;;;;;;13.73;76.74;101625.97;5051367;28;20072;-66
2022/01/01 03:10:36;;;;;;;23.25;12.55;;;;;;;13.95;75.82;101634.47;5049336;28;20069;-66
2022/01/01 03:13:04;;;;;;;23.23;11.45;;;;;;;14.19;75.18;101645.56;5048683;28;20040;-66
2022/01/01 03:15:30;;;;;;;28.95;12.27;;;;;;;14.09;75.06;101651.28;5048616;28;20401;-66
2022/01/01 03:17:57;;;;;;;21.83;12.40;;;;;;;14.08;75.21;101656.63;5048046;28;20073;-66
2022/01/01 03:20:23;;;;;;;21.27;10.32;;;;;;;14.22;74.91;101654.16;5048231;28;20141;-66
2022/01/01 03:22:50;;;;;;;21.10;11.65;;;;;;;14.24;74.71;101651.44;5048923;28;20122;-66
2022/01/01 03:25:16;;;;;;;24.02;11.70;;;;;;;13.82;75.93;101647.44;5048845;28;20072;-66
2022/01/01 03:27:42;;;;;;;23.48;10.60;;;;;;;13.61;77.14;101652.00;5048459;28;20489;-66
2022/01/01 03:30:10;;;;;;;24.40;12.20;;;;;;;13.86;75.99;101650.75;5048107;28;20072;-66
2022/01/01 03:32:37;;;;;;;24.50;11.52;;;;;;;13.86;76.16;101654.25;5048258;28;20458;-66
2022/01/01 03:35:03;;;;;;;22.45;10.77;;;;;;;13.92;76.08;101656.59;5047892;28;20086;-67
2022/01/01 03:37:29;;;;;;;18.88;12.07;;;;;;;13.73;76.48;101655.81;5046745;28;20084;-67
2022/01/01 03:39:56;;;;;;;24.75;11.35;;;;;;;13.74;76.80;101649.63;5053134;28;20217;-67
2022/01/01 03:42:22;;;;;;;22.13;10.90;;;;;;;14.06;75.68;101658.50;5047885;28;20041;-67
2022/01/01 03:44:48;;;;;;;21.23;12.00;;;;;;;14.10;75.38;101657.44;5047095;28;20458;-67
2022/01/01 03:47:16;;;;;;;27.45;12.27;;;;;;;14.13;75.28;101654.63;5047408;28;20559;-66
2022/01/01 03:49:42;;;;;;;18.63;10.40;;;;;;;13.99;75.46;101659.75;5047362;28;20076;-66
2022/01/01 03:52:09;;;;;;;27.70;11.57;;;;;;;13.63;77.36;101659.84;5047556;28;20073;-66
2022/01/01 03:54:35;;;;;;;28.40;10.85;;;;;;;13.43;77.36;101647.66;5047929;28;20052;-66
2022/01/01 03:57:02;;;;;;;22.15;11.27;;;;;;;13.67;77.31;101645.59;5047836;28;20056;-66
2022/01/01 03:59:28;;;;;;;23.50;12.25;;;;;;;13.96;75.61;101641.47;5047942;28;20421;-66
2022/01/01 04:01:55;;;;;;;25.40;11.70;;;;;;;14.00;75.70;101646.50;5047674;28;20505;-66
2022/01/01 04:04:25;;;;;;;25.40;11.88;;;;;;;13.82;76.11;101657.97;5048116;28;20044;-66
2022/01/01 04:06:51;;;;;;;24.77;12.70;;;;;;;13.90;76.32;101658.44;5049446;28;20045;-66
2022/01/01 04:09:18;;;;;;;22.00;12.40;;;;;;;14.10;75.33;101652.16;5056887;28;20091;-66
2022/01/01 04:11:44;;;;;;;22.67;12.70;;;;;;;13.97;75.89;101649.28;5051364;28;20500;-66
2022/01/01 04:14:13;;;;;;;29.70;12.98;;;;;;;13.73;76.92;101655.81;5050612;28;20455;-66
2022/01/01 04:16:40;;;;;;;32.55;13.18;;;;;;;13.97;75.96;101658.97;5048474;28;20049;-67
2022/01/01 04:19:06;;;;;;;27.25;13.93;;;;;;;13.87;75.60;101658.59;5047780;28;20045;-67
2022/01/01 04:21:34;;;;;;;22.80;12.77;;;;;;;13.81;76.28;101652.78;5051098;28;20049;-67
2022/01/01 04:24:00;;;;;;;27.33;13.18;;;;;;;13.64;77.01;101648.34;5051715;28;20110;-66
2022/01/01 04:26:27;;;;;;;26.55;13.68;;;;;;;13.56;77.28;101648.72;5050659;28;20072;-66
2022/01/01 04:28:53;;;;;;;23.88;12.13;;;;;;;13.80;76.24;101656.34;5050788;28;20045;-66
2022/01/01 04:31:19;;;;;;;26.05;12.98;;;;;;;14.06;75.56;101654.09;5050499;28;20049;-66
2022/01/01 04:33:46;;;;;;;27.23;12.40;;;;;;;13.73;76.25;101666.34;5050206;28;20045;-66
2022/01/01 04:36:13;;;;;;;26.15;12.57;;;;;;;13.81;76.16;101664.19;5050165;28;20504;-66
2022/01/01 04:38:42;;;;;;;24.63;13.40;;;;;;;13.89;75.77;101655.91;5053884;28;20427;-66
2022/01/01 04:41:11;;;;;;;27.25;12.93;;;;;;;13.68;76.35;101656.97;5050890;28;20587;-66
2022/01/01 04:43:38;;;;;;;31.48;14.43;;;;;;;13.84;76.16;101655.28;5050586;28;20041;-66
2022/01/01 04:46:04;;;;;;;22.65;13.05;;;;;;;13.65;76.47;101658.84;5050906;28;20480;-66
2022/01/01 04:48:31;;;;;;;26.95;13.52;;;;;;;13.73;76.13;101655.81;5049788;28;20045;-66
2022/01/01 04:50:57;;;;;;;24.58;13.15;;;;;;;13.66;76.82;101643.88;5050757;28;20114;-66
2022/01/01 04:53:24;;;;;;;24.42;12.95;;;;;;;13.61;76.42;101662.53;5050471;28;20449;-66
2022/01/01 04:55:51;;;;;;;27.75;12.80;;;;;;;13.63;76.36;101675.66;5050156;28;20049;-67
2022/01/01 04:58:18;;;;;;;22.40;12.30;;;;;;;13.50;76.86;101678.03;5050610;28;20041;-67
2022/01/01 05:00:44;;;;;;;21.05;11.88;;;;;;;13.69;76.35;101685.03;5050731;28;20179;-67
2022/01/01 05:03:11;;;;;;;22.70;13.05;;;;;;;13.74;76.00;101689.16;5050530;28;20049;-67
2022/01/01 05:05:37;;;;;;;25.25;11.80;;;;;;;13.61;76.35;101694.16;5049890;28;20141;-67
2022/01/01 05:08:04;;;;;;;23.27;11.98;;;;;;;13.77;75.91;101689.00;5052359;28;20045;-67
2022/01/01 05:10:30;;;;;;;27.98;13.95;;;;;;;13.73;76.02;101697.97;5045602;28;20076;-67
2022/01/01 05:12:58;;;;;;;25.67;11.82;;;;;;;13.68;75.71;101699.13;5050350;28;20083;-67
2022/01/01 05:15:24;;;;;;;23.40;11.32;;;;;;;13.94;75.00;101714.50;5050865;28;20045;-67
2022/01/01 05:17:51;;;;;;;22.48;11.48;;;;;;;14.02;74.63;101714.97;5050327;28;20053;-67
2022/01/01 05:20:17;;;;;;;22.08;10.90;;;;;;;13.81;75.48;101714.28;5050729;28;20069;-67
2022/01/01 05:22:43;;;;;;;19.48;11.95;;;;;;;13.64;76.05;101714.25;5050030;28;21044;-67
2022/01/01 05:25:10;;;;;;;24.80;11.88;;;;;;;13.98;74.94;101718.69;5047428;28;20102;-67
2022/01/01 05:27:37;;;;;;;24.55;12.13;;;;;;;14.02;74.26;101712.34;5049089;28;20555;-67
2022/01/01 05:30:06;;;;;;;26.50;11.50;;;;;;;14.20;73.71;101713.19;5050149;28;20041;-67
2022/01/01 05:32:33;;;;;;;22.70;11.07;;;;;;;13.98;74.51;101716.06;5049228;28;20064;-67
2022/01/01 05:34:59;;;;;;;28.10;12.10;;;;;;;14.01;74.18;101714.13;5050405;28;20110;-67
2022/01/01 05:37:26;;;;;;;21.70;10.98;;;;;;;13.84;75.22;101713.25;5050251;28;20438;-67
2022/01/01 05:39:52;;;;;;;21.45;11.30;;;;;;;13.94;75.01;101710.09;5054924;28;20079;-67
2022/01/01 05:42:19;;;;;;;23.88;10.50;;;;;;;14.04;74.07;101707.88;5049759;28;20094;-67
2022/01/01 05:44:45;;;;;;;23.60;10.68;;;;;;;14.08;74.34;101717.28;5050010;28;20087;-67
2022/01/01 05:47:13;;;;;;;21.20;11.70;;;;;;;14.24;73.47;101725.28;5050866;28;20041;-67
2022/01/01 05:49:39;;;;;;;22.45;11.38;;;;;;;14.12;74.03;101732.03;5049538;28;20098;-67
2022/01/01 05:52:06;;;;;;;28.85;13.10;;;;;;;13.91;74.67;101735.75;5049936;28;20501;-67
2022/01/01 05:54:32;;;;;;;21.15;11.13;;;;;;;14.15;73.80;101748.56;5049623;28;20049;-67
2022/01/01 05:56:59;;;;;;;21.35;10.30;;;;;;;13.91;74.80;101748.94;5049631;28;20430;-67
2022/01/01 05:59:26;;;;;;;36.60;11.73;;;;;;;14.01;74.58;101745.75;5048837;28;20077;-67
2022/01/01 06:01:52;;;;;;;16.63;10.10;;;;;;;13.89;74.70;101749.03;5050015;28;20485;-67
2022/01/01 06:04:20;;;;;;;25.67;11.60;;;;;;;13.95;74.71;101755.78;5049347;28;20102;-67
2022/01/01 06:06:46;;;;;;;25.98;11.35;;;;;;;13.95;74.36;101750.50;5049394;28;20041;-67
2022/01/01 06:09:13;;;;;;;26.63;11.15;;;;;;;14.14;73.75;101752.16;5054393;28;20037;-67
2022/01/01 06:11:39;;;;;;;24.17;11.02;;;;;;;14.09;74.07;101746.25;5049164;28;20535;-67
2022/01/01 06:14:05;;;;;;;23.30;11.90;;;;;;;13.96;74.40;101741.66;5048913;28;20069;-67
2022/01/01 06:16:32;;;;;;;22.52;10.85;;;;;;;14.08;74.02;101744.53;5049269;28;20049;-67
2022/01/01 06:18:58;;;;;;;18.65;10.70;;;;;;;14.15;73.72;101745.91;5029654;28;20096;-67
2022/01/01 06:21:26;;;;;;;23.17;10.48;;;;;;;14.23;73.35;101750.81;5029702;28;20126;-67
2022/01/01 06:23:52;;;;;;;19.27;9.70;;;;;;;14.33;73.26;101745.94;5029568;28;20069;-67
2022/01/01 06:26:18;;;;;;;23.35;10.77;;;;;;;14.02;74.03;101751.91;5030102;28;20073;-67
2022/01/01 06:28:45;;;;;;;19.73;10.18;;;;;;;14.08;73.74;101751.59;5048747;28;20122;-67
2022/01/01 06:31:11;;;;;;;18.08;9.80;;;;;;;14.03;74.10;101751.84;5048569;28;20080;-67
2022/01/01 06:33:38;;;;;;;21.00;10.13;;;;;;;13.92;74.28;101766.47;5049084;28;20076;-67
2022/01/01 06:36:05;;;;;;;21.90;10.77;;;;;;;13.73;74.97;101758.59;5049099;28;20122;-67
2022/01/01 06:38:33;;;;;;;25.63;11.35;;;;;;;13.90;74.84;101752.50;5048830;28;20076;-67
2022/01/01 06:40:59;;;;;;;20.75;10.98;;;;;;;13.64;75.80;101757.25;5047783;28;20134;-67
2022/01/01 06:43:25;;;;;;;25.35;10.20;;;;;;;13.73;75.05;101760.38;5048843;28;20084;-67
2022/01/01 06:45:52;;;;;;;21.50;11.95;;;;;;;13.85;75.20;101767.72;5049471;28;20095;-67
2022/01/01 06:48:18;;;;;;;21.50;11.02;;;;;;;14.04;74.06;101752.69;5048843;28;20068;-67
2022/01/01 06:50:44;;;;;;;21.70;11.27;;;;;;;14.10;74.02;101768.19;5049004;28;21156;-67
2022/01/01 06:53:11;;;;;;;20.88;12.07;;;;;;;14.03;74.38;101774.72;5042941;28;20505;-67
2022/01/01 06:55:39;;;;;;;24.77;11.48;;;;;;;14.35;72.81;101778.38;5046600;28;20068;-67
2022/01/01 06:58:06;;;;;;;25.50;11.70;;;;;;;14.13;73.83;101776.81;5048275;28;20072;-67
2022/01/01 07:00:32;;;;;;;25.40;10.45;;;;;;;14.08;73.68;101780.59;5048529;28;20044;-67
2022/01/01 07:02:59;;;;;;;20.80;10.65;;;;;;;14.20;73.35;101785.25;5048568;28;20466;-67
2022/01/01 07:05:25;;;;;;;21.95;10.57;;;;;;;14.07;73.71;101777.13;5048342;28;20048;-67
2022/01/01 07:07:51;;;;;;;27.20;11.57;;;;;;;13.99;74.09;101788.97;5048961;28;20405;-67
2022/01/01 07:10:18;;;;;;;21.55;10.43;;;;;;;13.74;74.93;101784.06;5047766;28;20157;-67
2022/01/01 07:12:45;;;;;;;24.52;11.60;;;;;;;13.98;74.50;101793.38;5048663;28;20107;-67
2022/01/01 07:15:12;;;;;;;29.80;11.73;;;;;;;13.77;75.06;101798.84;5048512;28;20173;-66
2022/01/01 07:17:38;;;;;;;21.33;11.35;;;;;;;13.75;75.28;101790.16;5048429;28;20045;-66
2022/01/01 07:20:06;;;;;;;23.00;11.07;;;;;;;13.70;75.22;101800.06;5048593;28;20060;-66
2022/01/01 07:22:32;;;;;;;22.00;10.95;;;;;;;13.54;76.17;101803.44;5048291;28;20461;-66
2022/01/01 07:24:59;;;;;;;33.05;11.48;;;;;;;13.64;75.88;101803.84;5048595;28;20069;-66
2022/01/01 07:27:25;;;;;;;19.25;10.38;;;;;;;13.49;76.09;101808.06;5048427;28;20099;-67
2022/01/01 07:29:53;;;;;;;22.95;10.45;;;;;;;13.45;76.31;101819.66;5048830;28;20080;-67
2022/01/01 07:32:19;;;;;;;27.52;11.18;;;;;;;13.45;76.34;101809.13;5048347;28;20065;-67
2022/01/01 07:34:45;;;;;;;23.00;11.10;;;;;;;13.35;76.83;101814.91;5048270;28;20052;-67
2022/01/01 07:37:12;;;;;;;31.45;13.02;;;;;;;13.53;76.37;101814.91;5047441;28;20533;-67
2022/01/01 07:39:38;;;;;;;23.02;10.82;;;;;;;13.70;75.66;101827.28;5052813;28;20049;-67
2022/01/01 07:42:05;;;;;;;22.23;10.75;;;;;;;13.62;75.58;101832.94;5051511;28;20049;-67
2022/01/01 07:44:32;;;;;;;20.20;11.55;;;;;;;13.76;74.97;101834.91;5052375;28;20068;-67
2022/01/01 07:47:00;;;;;;;23.75;11.57;;;;;;;13.70;75.20;101837.84;5051906;28;20069;-67
2022/01/01 07:49:27;;;;;;;23.83;11.77;;;;;;;13.79;75.41;101837.38;5052205;28;20067;-67
2022/01/01 07:51:53;;;;;;;23.52;11.82;;;;;;;13.96;74.62;101848.00;5052311;28;20093;-67
2022/01/01 07:54:20;;;;;;;26.02;12.13;;;;;;;13.80;75.01;101846.16;5048394;28;20068;-67
2022/01/01 07:56:46;;;;;;;22.08;11.88;;;;;;;13.84;74.95;101848.56;5050887;28;20508;-67
2022/01/01 07:59:12;;;;;;;27.33;12.90;;;;;;;14.14;73.68;101854.16;5051678;28;20076;-67
2022/01/01 08:01:40;;;;;;;33.20;13.98;;;;;;;13.99;73.94;101861.03;5051521;28;20146;-67
2022/01/01 08:04:07;;;;;;;24.40;12.18;;;;;;;14.08;73.85;101859.72;5051734;28;20048;-67
2022/01/01 08:06:34;;;;;;;30.50;12.65;;;;;;;14.18;73.68;101866.28;5050000;28;20080;-67
2022/01/01 08:09:00;;;;;;;32.08;13.68;;;;;;;13.88;74.86;101867.75;5051659;28;20045;-67
2022/01/01 08:11:26;;;;;;;26.67;13.02;;;;;;;13.97;74.48;101872.56;5050760;28;20151;-67
2022/01/01 08:13:53;;;;;;;26.55;14.07;;;;;;;13.95;74.18;101864.75;5052063;28;20060;-67
2022/01/01 08:16:19;;;;;;;30.35;13.63;;;;;;;13.79;74.88;101869.03;5039190;28;20099;-67
2022/01/01 08:18:45;;;;;;;29.15;13.85;;;;;;;13.93;74.83;101884.22;5051077;28;20049;-67
2022/01/01 08:21:13;;;;;;;26.60;12.98;;;;;;;13.95;74.30;101887.59;5050908;28;20187;-67
2022/01/01 08:23:40;;;;;;;27.05;13.98;;;;;;;14.07;73.97;101881.75;5049713;28;20065;-67
2022/01/01 08:26:06;;;;;;;31.65;14.45;;;;;;;14.19;73.78;101880.31;5051279;28;20045;-67
2022/01/01 08:28:33;;;;;;;30.50;14.50;;;;;;;14.30;73.10;101892.03;5050393;28;20045;-67
2022/01/01 08:30:59;;;;;;;32.22;16.30;;;;;;;14.12;73.53;101895.56;5042687;28;20052;-67
2022/01/01 08:33:26;;;;;;;29.63;15.77;;;;;;;14.03;74.22;101898.66;5050827;28;20563;-67
2022/01/01 08:35:52;;;;;;;31.75;15.88;;;;;;;14.12;73.84;101896.41;5032046;28;20088;-67
2022/01/01 08:38:20;;;;;;;27.65;16.23;;;;;;;14.27;73.12;101893.97;5032697;28;20065;-67
2022/01/01 08:40:46;;;;;;;35.47;16.40;;;;;;;14.08;73.62;101892.22;5049490;28;20049;-67
2022/01/01 08:43:12;;;;;;;26.90;16.42;;;;;;;13.97;74.52;101901.56;5051103;28;20064;-67
2022/01/01 08:45:39;;;;;;;32.08;17.45;;;;;;;14.02;74.12;101902.22;5051097;28;20114;-67
2022/01/01 08:48:06;;;;;;;35.67;16.73;;;;;;;14.04;73.99;101897.75;5050967;28;20069;-67
2022/01/01 08:50:33;;;;;;;41.00;17.20;;;;;;;13.73;74.91;101895.69;5050761;28;20049;-67
2022/01/01 08:53:00;;;;;;;40.58;18.83;;;;;;;13.78;75.08;101900.75;5044141;28;20405;-67
2022/01/01 08:55:29;;;;;;;33.75;17.88;;;;;;;13.87;74.51;101900.28;5050631;28;20073;-67
2022/01/01 08:57:55;;;;;;;39.80;17.55;;;;;;;13.87;74.77;101911.69;5050802;28;20069;-67
2022/01/01 09:00:22;;;;;;;37.55;18.83;;;;;;;13.77;74.84;101906.94;5050549;28;20068;-67
2022/01/01 09:02:48;;;;;;;37.63;17.85;;;;;;;13.75;74.88;101911.41;5050518;28;20044;-67
2022/01/01 09:05:15;;;;;;;31.35;17.52;;;;;;;14.02;74.12;101918.91;5050607;28;20049;-67
2022/01/01 09:07:41;;;;;;;38.85;18.30;;;;;;;14.15;73.60;101916.53;5050655;28;20547;-67
2022/01/01 09:10:08;;;;;;;33.17;18.38;;;;;;;14.05;73.83;101920.53;5050527;28;20087;-67
2022/01/01 09:12:36;;;;;;;33.97;18.48;;;;;;;14.02;73.73;101916.25;5050491;28;20095;-67
2022/01/01 09:15:03;;;;;;;31.83;17.13;;;;;;;14.22;73.22;101912.69;5050413;28;20044;-67
2022/01/01 09:17:29;;;;;;;33.70;17.25;;;;;;;14.06;73.77;101917.81;5050469;28;20103;-67
2022/01/01 09:19:55;;;;;;;36.88;17.30;;;;;;;14.04;74.19;101924.09;5051138;28;20460;-67
2022/01/01 09:22:22;;;;;;;44.25;18.50;;;;;;;14.37;72.81;101925.16;5050483;28;20386;-67
2022/01/01 09:24:48;;;;;;;40.05;19.80;;;;;;;14.69;72.13;101920.94;5050294;28;20452;-67
2022/01/01 09:27:15;;;;;;;33.03;17.95;;;;;;;14.63;72.10;101925.66;5049814;28;20072;-67
2022/01/01 09:29:42;;;;;;;30.92;18.70;;;;;;;14.52;72.17;101929.66;5050220;28;20049;-67
2022/01/01 09:32:10;;;;;;;33.90;18.80;;;;;;;14.83;71.12;101938.72;5050023;28;20473;-67
2022/01/01 09:34:36;;;;;;;33.20;18.05;;;;;;;14.69;71.49;101928.00;5050098;28;20052;-67
2022/01/01 09:37:03;;;;;;;36.97;18.48;;;;;;;14.90;70.60;101943.59;5050141;28;20053;-67
2022/01/01 09:39:29;;;;;;;40.15;19.95;;;;;;;14.67;71.42;101935.97;5049527;28;20521;-67
2022/01/01 09:41:57;;;;;;;42.63;19.10;;;;;;;14.53;71.92;101941.94;5049395;28;20122;-67
2022/01/01 09:44:24;;;;;;;33.15;17.98;;;;;;;14.69;71.43;101939.41;5047802;28;20041;-67
2022/01/01 09:46:52;;;;;;;37.20;18.02;;;;;;;14.97;70.46;101934.44;5049974;28;20394;-67
2022/01/01 09:49:19;;;;;;;36.75;18.10;;;;;;;14.75;70.88;101944.38;5050126;28;20548;-67
2022/01/01 09:51:46;;;;;;;30.60;17.83;;;;;;;14.84;71.25;101945.69;5049829;28;20758;-67
2022/01/01 09:54:14;;;;;;;38.03;18.40;;;;;;;14.67;71.46;101946.53;5049173;28;20090;-67
2022/01/01 09:56:40;;;;;;;41.28;17.90;;;;;;;14.45;71.90;101959.94;5049599;28;20069;-67
2022/01/01 09:59:07;;;;;;;35.70;19.05;;;;;;;14.45;72.79;101953.78;5049928;28;20111;-68
2022/01/01 10:01:34;;;;;;;41.35;18.35;;;;;;;14.53;71.95;101957.78;5049451;28;20394;-68
2022/01/01 10:04:11;;;;;;;37.55;18.27;;;;;;;14.53;72.35;101965.69;5049577;28;20052;-67
2022/01/01 10:06:37;;;;;;;35.15;19.02;;;;;;;14.90;70.50;101963.88;5046422;28;20068;-68
2022/01/01 10:09:05;;;;;;;31.35;17.70;;;;;;;15.10;70.31;101969.00;5047658;28;20182;-68
2022/01/01 10:11:33;;;;;;;37.85;17.98;;;;;;;14.91;71.17;101965.59;5049155;28;20053;-68
2022/01/01 10:14:00;;;;;;;34.95;19.58;;;;;;;15.30;69.97;101963.53;5049045;28;20048;-68
2022/01/01 10:16:26;;;;;;;38.55;17.52;;;;;;;15.09;70.29;101964.66;5049075;28;20145;-67
2022/01/01 10:18:54;;;;;;;32.88;18.40;;;;;;;15.27;69.45;101973.41;5049756;28;20475;-68
2022/01/01 10:21:27;;;;;;;39.05;18.35;;;;;;;15.21;69.70;101971.97;5043504;28;20391;-68
2022/01/01 10:23:56;;;;;;;35.00;18.45;;;;;;;14.84;70.63;101969.47;5040895;28;20145;-68
2022/01/01 10:29:18;;;;;;;31.02;17.50;;;;;;;14.99;71.01;101969.56;5049301;28;20120;-68
2022/01/01 10:31:56;;;;;;;39.53;19.83;;;;;;;15.29;69.94;101966.28;5047761;28;20134;-68
2022/01/01 10:34:25;;;;;;;35.05;17.17;;;;;;;15.25;70.13;101960.31;5049188;28;20413;-68
2022/01/01 10:36:53;;;;;;;33.08;17.08;;;;;;;15.28;69.62;101964.56;5048893;28;20106;-68
2022/01/01 10:39:21;;;;;;;35.38;17.13;;;;;;;15.21;69.61;101964.03;5048898;28;20119;-68
2022/01/01 10:41:51;;;;;;;32.97;16.45;;;;;;;15.04;69.80;101962.25;5047017;28;20501;-67
2022/01/01 10:44:21;;;;;;;32.78;17.00;;;;;;;14.79;71.40;101961.78;5042746;28;20049;-68
2022/01/01 10:46:48;;;;;;;34.00;16.60;;;;;;;14.87;70.64;101962.25;5028779;28;20096;-67
2022/01/01 10:50:03;;;;;;;28.70;15.73;;;;;;;14.74;70.94;101969.09;5042001;28;20041;-67
2022/01/01 10:52:29;;;;;;;34.17;16.70;;;;;;;14.79;71.48;101967.06;5047003;28;20053;-67
2022/01/01 10:54:56;;;;;;;34.03;16.60;;;;;;;15.17;69.71;101967.75;5048876;28;20044;-67
2022/01/01 10:57:25;;;;;;;37.60;17.23;;;;;;;15.21;69.43;101961.38;5048727;28;20040;-67
2022/01/01 11:00:05;;;;;;;33.58;15.45;;;;;;;15.27;69.54;101965.50;5042182;28;20115;-68
2022/01/01 11:02:33;;;;;;;28.70;16.40;;;;;;;15.40;68.72;101971.88;5049466;28;20045;-68
2022/01/01 11:04:59;;;;;;;30.70;15.60;;;;;;;15.19;69.19;101967.69;5049171;28;20087;-68
2022/01/01 11:07:28;;;;;;;28.25;15.57;;;;;;;15.25;69.55;101978.81;5048714;28;20049;-68
2022/01/01 11:09:56;;;;;;;28.27;14.60;;;;;;;15.28;69.49;101960.13;5047332;28;20068;-68
2022/01/01 11:12:24;;;;;;;31.05;15.40;;;;;;;15.49;68.49;101964.31;5048891;28;20083;-68
2022/01/01 11:14:53;;;;;;;34.17;15.40;;;;;;;15.53;68.36;101955.31;5049104;28;20151;-67